sensor_id;sensor_type;location;lat;lon;timestamp;pressure;altitude;pressure_sealevel;temperature;humidity
71938;BME280;59810;48.800;9.086;2023-02-02T00:00:29;98231.28;;;5.29;73.31
71938;BME280;59810;48.800;9.086;2023-02-02T00:02:54;98232.31;;;5.28;73.17
71938;BME280;59810;48.800;9.086;2023-02-02T00:05:22;98231.91;;;5.31;72.93
71938;BME280;59810;48.800;9.086;2023-02-02T00:07:47;98221.59;;;5.28;73.34
71938;BME280;59810;48.800;9.086;2023-02-02T00:10:12;98226.94;;;5.28;73.17
71938;BME280;59810;48.800;9.086;2023-02-02T00:12:40;98220.97;;;5.26;73.07
71938;BME280;59810;48.800;9.086;2023-02-02T00:15:06;98223.84;;;5.25;73.29
71938;BME280;59810;48.800;9.086;2023-02-02T00:17:31;98210.06;;;5.28;72.77
71938;BME280;59810;48.800;9.086;2023-02-02T00:19:57;98211.50;;;5.30;72.72
71938;BME280;59810;48.800;9.086;2023-02-02T00:22:22;98207.59;;;5.26;72.80
71938;BME280;59810;48.800;9.086;2023-02-02T00:24:48;98218.28;;;5.26;72.91
71938;BME280;59810;48.800;9.086;2023-02-02T00:27:13;98211.09;;;5.34;72.70
71938;BME280;59810;48.800;9.086;2023-02-02T00:29:38;98230.25;;;5.30;73.00
71938;BME280;59810;48.800;9.086;2023-02-02T00:32:04;98237.47;;;5.30;73.15
71938;BME280;59810;48.800;9.086;2023-02-02T00:34:30;98229.81;;;5.27;73.08
71938;BME280;59810;48.800;9.086;2023-02-02T00:36:57;98225.09;;;5.29;73.27
71938;BME280;59810;48.800;9.086;2023-02-02T00:39:24;98230.66;;;5.27;73.59
71938;BME280;59810;48.800;9.086;2023-02-02T00:41:50;98231.28;;;5.29;73.63
71938;BME280;59810;48.800;9.086;2023-02-02T00:44:16;98225.72;;;5.31;73.55
71938;BME280;59810;48.800;9.086;2023-02-02T00:47:00;98228.59;;;5.29;73.79
71938;BME280;59810;48.800;9.086;2023-02-02T00:49:25;98230.66;;;5.27;74.18
71938;BME280;59810;48.800;9.086;2023-02-02T00:51:53;98214.59;;;5.27;73.94
71938;BME280;59810;48.800;9.086;2023-02-02T00:54:18;98221.38;;;5.30;74.03
71938;BME280;59810;48.800;9.086;2023-02-02T00:56:44;98222.41;;;5.29;74.15
71938;BME280;59810;48.800;9.086;2023-02-02T00:59:09;98216.25;;;5.28;74.16
71938;BME280;59810;48.800;9.086;2023-02-02T01:01:35;98217.06;;;5.29;74.14
71938;BME280;59810;48.800;9.086;2023-02-02T01:04:00;98220.59;;;5.36;73.82
71938;BME280;59810;48.800;9.086;2023-02-02T01:06:26;98223.88;;;5.38;74.04
71938;BME280;59810;48.800;9.086;2023-02-02T01:08:51;98224.69;;;5.39;74.01
71938;BME280;59810;48.800;9.086;2023-02-02T01:11:19;98216.25;;;5.35;74.01
71938;BME280;59810;48.800;9.086;2023-02-02T01:13:46;98219.13;;;5.34;74.33
71938;BME280;59810;48.800;9.086;2023-02-02T01:16:11;98226.97;;;5.35;74.60
71938;BME280;59810;48.800;9.086;2023-02-02T01:18:37;98236.22;;;5.32;74.94
71938;BME280;59810;48.800;9.086;2023-02-02T01:21:05;98221.19;;;5.31;75.18
71938;BME280;59810;48.800;9.086;2023-02-02T01:23:31;98231.50;;;5.35;75.19
71938;BME280;59810;48.800;9.086;2023-02-02T01:25:58;98237.06;;;5.33;75.73
71938;BME280;59810;48.800;9.086;2023-02-02T01:28:25;98240.56;;;5.34;76.22
71938;BME280;59810;48.800;9.086;2023-02-02T01:30:53;98235.59;;;5.30;76.71
71938;BME280;59810;48.800;9.086;2023-02-02T01:33:21;98236.63;;;5.23;77.32
71938;BME280;59810;48.800;9.086;2023-02-02T01:35:49;98232.50;;;5.20;77.72
71938;BME280;59810;48.800;9.086;2023-02-02T01:38:17;98234.31;;;5.20;78.00
71938;BME280;59810;48.800;9.086;2023-02-02T01:40:54;98242.13;;;5.15;78.45
71938;BME280;59810;48.800;9.086;2023-02-02T01:43:28;98245.00;;;5.13;78.72
71938;BME280;59810;48.800;9.086;2023-02-02T01:45:57;98245.41;;;5.10;78.89
71938;BME280;59810;48.800;9.086;2023-02-02T01:48:31;98234.69;;;5.10;78.85
71938;BME280;59810;48.800;9.086;2023-02-02T01:51:06;98241.69;;;5.11;78.70
71938;BME280;59810;48.800;9.086;2023-02-02T01:53:34;98228.53;;;5.10;78.69
71938;BME280;59810;48.800;9.086;2023-02-02T01:56:02;98236.56;;;5.16;78.14
71938;BME280;59810;48.800;9.086;2023-02-02T01:58:33;98229.41;;;5.23;77.83
71938;BME280;59810;48.800;9.086;2023-02-02T02:00:59;98244.19;;;5.19;77.98
71938;BME280;59810;48.800;9.086;2023-02-02T02:03:27;98239.88;;;5.18;78.16
71938;BME280;59810;48.800;9.086;2023-02-02T02:05:59;98239.44;;;5.15;78.27
71938;BME280;59810;48.800;9.086;2023-02-02T02:11:00;98226.47;;;5.18;77.95
71938;BME280;59810;48.800;9.086;2023-02-02T02:13:27;98222.78;;;5.19;78.11
71938;BME280;59810;48.800;9.086;2023-02-02T02:27:46;98233.94;;;5.23;77.86
71938;BME280;59810;48.800;9.086;2023-02-02T02:30:33;98244.19;;;5.19;78.14
71938;BME280;59810;48.800;9.086;2023-02-02T02:33:21;98240.97;;;5.30;78.01
71938;BME280;59810;48.800;9.086;2023-02-02T02:38:23;98251.66;;;5.24;78.41
71938;BME280;59810;48.800;9.086;2023-02-02T02:40:54;98232.94;;;5.30;78.23
71938;BME280;59810;48.800;9.086;2023-02-02T02:45:51;98237.84;;;5.27;78.39
71938;BME280;59810;48.800;9.086;2023-02-02T02:48:17;98240.53;;;5.27;78.70
71938;BME280;59810;48.800;9.086;2023-02-02T02:50:42;98228.59;;;5.29;78.71
71938;BME280;59810;48.800;9.086;2023-02-02T02:53:14;98227.97;;;5.27;78.69
71938;BME280;59810;48.800;9.086;2023-02-02T03:01:27;98236.84;;;5.28;78.75
71938;BME280;59810;48.800;9.086;2023-02-02T03:04:17;98246.72;;;5.27;79.04
71938;BME280;59810;48.800;9.086;2023-02-02T03:06:59;98245.06;;;5.26;78.83
71938;BME280;59810;48.800;9.086;2023-02-02T03:09:32;98240.13;;;5.30;78.77
71938;BME280;59810;48.800;9.086;2023-02-02T03:12:00;98237.03;;;5.26;78.93
71938;BME280;59810;48.800;9.086;2023-02-02T03:14:26;98240.75;;;5.25;79.10
71938;BME280;59810;48.800;9.086;2023-02-02T03:16:52;98252.47;;;5.24;79.18
71938;BME280;59810;48.800;9.086;2023-02-02T03:19:22;98243.41;;;5.25;78.93
71938;BME280;59810;48.800;9.086;2023-02-02T03:21:49;98239.31;;;5.29;78.61
71938;BME280;59810;48.800;9.086;2023-02-02T03:24:15;98242.38;;;5.26;78.66
71938;BME280;59810;48.800;9.086;2023-02-02T03:26:40;98232.94;;;5.30;78.48
71938;BME280;59810;48.800;9.086;2023-02-02T03:29:06;98225.50;;;5.32;78.24
71938;BME280;59810;48.800;9.086;2023-02-02T03:31:31;98228.63;;;5.36;78.24
71938;BME280;59810;48.800;9.086;2023-02-02T03:33:56;98225.31;;;5.34;78.44
71938;BME280;59810;48.800;9.086;2023-02-02T03:36:25;98223.06;;;5.38;78.28
71938;BME280;59810;48.800;9.086;2023-02-02T03:38:54;98221.81;;;5.34;78.36
71938;BME280;59810;48.800;9.086;2023-02-02T03:41:19;98216.25;;;5.35;78.62
71938;BME280;59810;48.800;9.086;2023-02-02T03:43:45;98228.63;;;5.36;78.51
71938;BME280;59810;48.800;9.086;2023-02-02T03:46:10;98234.78;;;5.37;78.27
71938;BME280;59810;48.800;9.086;2023-02-02T03:48:37;98232.31;;;5.35;78.31
71938;BME280;59810;48.800;9.086;2023-02-02T03:51:09;98228.19;;;5.32;78.50
71938;BME280;59810;48.800;9.086;2023-02-02T03:53:36;98240.13;;;5.30;78.96
71938;BME280;59810;48.800;9.086;2023-02-02T03:56:02;98248.81;;;5.39;78.46
71938;BME280;59810;48.800;9.086;2023-02-02T03:58:29;98241.59;;;5.32;78.90
71938;BME280;59810;48.800;9.086;2023-02-02T04:01:05;98247.34;;;5.36;78.73
71938;BME280;59810;48.800;9.086;2023-02-02T04:03:32;98246.94;;;5.32;78.84
71938;BME280;59810;48.800;9.086;2023-02-02T04:05:58;98242.59;;;5.31;78.80
71938;BME280;59810;48.800;9.086;2023-02-02T04:08:23;98249.19;;;5.29;79.01
71938;BME280;59810;48.800;9.086;2023-02-02T04:10:48;98248.59;;;5.34;79.03
71938;BME280;59810;48.800;9.086;2023-02-02T04:13:14;98244.66;;;5.29;79.15
71938;BME280;59810;48.800;9.086;2023-02-02T04:15:39;98250.63;;;5.31;79.00
71938;BME280;59810;48.800;9.086;2023-02-02T04:18:07;98248.59;;;5.34;78.99
71938;BME280;59810;48.800;9.086;2023-02-02T04:20:33;98256.63;;;5.34;79.01
71938;BME280;59810;48.800;9.086;2023-02-02T04:22:58;98254.16;;;5.39;78.66
71938;BME280;59810;48.800;9.086;2023-02-02T04:25:24;98250.44;;;5.33;78.93
71938;BME280;59810;48.800;9.086;2023-02-02T04:27:49;98256.00;;;5.38;78.64
71938;BME280;59810;48.800;9.086;2023-02-02T04:30:15;98257.84;;;5.38;78.76
71938;BME280;59810;48.800;9.086;2023-02-02T04:32:41;98263.22;;;5.38;78.70
71938;BME280;59810;48.800;9.086;2023-02-02T04:35:07;98268.56;;;5.38;78.89
71938;BME280;59810;48.800;9.086;2023-02-02T04:37:32;98267.31;;;5.34;79.09
71938;BME280;59810;48.800;9.086;2023-02-02T04:39:57;98278.47;;;5.37;78.85
71938;BME280;59810;48.800;9.086;2023-02-02T04:42:23;98267.31;;;5.34;79.01
71938;BME280;59810;48.800;9.086;2023-02-02T04:44:50;98271.44;;;5.36;78.99
71938;BME280;59810;48.800;9.086;2023-02-02T04:47:16;98276.81;;;5.36;78.74
71938;BME280;59810;48.800;9.086;2023-02-02T04:49:41;98280.94;;;5.39;78.62
71938;BME280;59810;48.800;9.086;2023-02-02T04:52:07;98286.28;;;5.39;78.64
71938;BME280;59810;48.800;9.086;2023-02-02T04:54:34;98292.06;;;5.42;78.46
71938;BME280;59810;48.800;9.086;2023-02-02T04:57:00;98296.16;;;5.38;78.41
71938;BME280;59810;48.800;9.086;2023-02-02T04:59:27;98287.13;;;5.46;78.20
71938;BME280;59810;48.800;9.086;2023-02-02T05:01:53;98293.28;;;5.40;78.61
71938;BME280;59810;48.800;9.086;2023-02-02T05:04:18;98296.59;;;5.42;78.41
71938;BME280;59810;48.800;9.086;2023-02-02T05:06:44;98295.38;;;5.44;78.39
71938;BME280;59810;48.800;9.086;2023-02-02T05:09:10;98299.28;;;5.48;78.32
71938;BME280;59810;48.800;9.086;2023-02-02T05:11:39;98304.84;;;5.47;78.26
71938;BME280;59810;48.800;9.086;2023-02-02T05:14:05;98305.25;;;5.44;78.60
71938;BME280;59810;48.800;9.086;2023-02-02T05:16:32;98323.38;;;5.42;78.77
71938;BME280;59810;48.800;9.086;2023-02-02T05:18:57;98321.09;;;5.39;78.82
71938;BME280;59810;48.800;9.086;2023-02-02T05:21:23;98317.81;;;5.43;78.70
71938;BME280;59810;48.800;9.086;2023-02-02T05:23:49;98313.09;;;5.45;78.50
71938;BME280;59810;48.800;9.086;2023-02-02T05:26:17;98318.22;;;5.40;78.52
71938;BME280;59810;48.800;9.086;2023-02-02T05:28:44;98319.47;;;5.44;78.50
71938;BME280;59810;48.800;9.086;2023-02-02T05:31:09;98316.78;;;5.44;78.58
71938;BME280;59810;48.800;9.086;2023-02-02T05:33:35;98326.28;;;5.47;78.59
71938;BME280;59810;48.800;9.086;2023-02-02T05:36:00;98329.56;;;5.42;78.89
71938;BME280;59810;48.800;9.086;2023-02-02T05:38:26;98317.81;;;5.43;78.86
71938;BME280;59810;48.800;9.086;2023-02-02T05:40:51;98318.84;;;5.42;79.11
71938;BME280;59810;48.800;9.086;2023-02-02T05:43:17;98326.66;;;5.44;78.85
71938;BME280;59810;48.800;9.086;2023-02-02T05:45:42;98322.53;;;5.41;78.96
71938;BME280;59810;48.800;9.086;2023-02-02T05:48:13;98322.34;;;5.43;78.97
71938;BME280;59810;48.800;9.086;2023-02-02T05:50:41;98332.66;;;5.46;78.78
71938;BME280;59810;48.800;9.086;2023-02-02T05:53:12;98331.19;;;5.43;78.96
71938;BME280;59810;48.800;9.086;2023-02-02T05:55:38;98324.00;;;5.44;78.90
71938;BME280;59810;48.800;9.086;2023-02-02T05:58:09;98319.06;;;5.47;78.90
71938;BME280;59810;48.800;9.086;2023-02-02T06:00:35;98321.94;;;5.46;79.03
71938;BME280;59810;48.800;9.086;2023-02-02T06:03:00;98316.56;;;5.39;79.36
71938;BME280;59810;48.800;9.086;2023-02-02T06:05:26;98312.44;;;5.37;79.49
71938;BME280;59810;48.800;9.086;2023-02-02T06:07:51;98311.41;;;5.38;79.46
71938;BME280;59810;48.800;9.086;2023-02-02T06:10:17;98303.78;;;5.35;79.63
71938;BME280;59810;48.800;9.086;2023-02-02T06:12:42;98311.41;;;5.38;79.67
71938;BME280;59810;48.800;9.086;2023-02-02T06:15:08;98312.44;;;5.37;79.39
71938;BME280;59810;48.800;9.086;2023-02-02T06:17:34;98318.19;;;5.34;79.63
71938;BME280;59810;48.800;9.086;2023-02-02T06:19:59;98306.69;;;5.40;79.33
71938;BME280;59810;48.800;9.086;2023-02-02T06:22:25;98329.75;;;5.41;79.17
71938;BME280;59810;48.800;9.086;2023-02-02T06:24:50;98325.81;;;5.37;79.32
71938;BME280;59810;48.800;9.086;2023-02-02T06:27:19;98342.31;;;5.40;79.37
71938;BME280;59810;48.800;9.086;2023-02-02T06:29:46;98342.13;;;5.42;79.16
71938;BME280;59810;48.800;9.086;2023-02-02T06:32:12;98337.38;;;5.44;79.25
71938;BME280;59810;48.800;9.086;2023-02-02T06:34:37;98347.28;;;5.43;78.83
71938;BME280;59810;48.800;9.086;2023-02-02T06:37:08;98344.16;;;5.40;79.05
71938;BME280;59810;48.800;9.086;2023-02-02T06:39:35;98342.31;;;5.40;79.42
71938;BME280;59810;48.800;9.086;2023-02-02T06:42:00;98358.38;;;5.40;79.19
71938;BME280;59810;48.800;9.086;2023-02-02T06:44:26;98350.16;;;5.42;79.50
71938;BME280;59810;48.800;9.086;2023-02-02T06:46:54;98350.78;;;5.44;79.07
71938;BME280;59810;48.800;9.086;2023-02-02T06:49:20;98365.19;;;5.43;78.78
71938;BME280;59810;48.800;9.086;2023-02-02T06:51:46;98366.22;;;5.42;79.07
71938;BME280;59810;48.800;9.086;2023-02-02T06:54:12;98362.72;;;5.41;78.90
71938;BME280;59810;48.800;9.086;2023-02-02T06:56:37;98360.47;;;5.45;78.79
71938;BME280;59810;48.800;9.086;2023-02-02T06:59:03;98365.41;;;5.48;78.77
71938;BME280;59810;48.800;9.086;2023-02-02T07:01:28;98360.25;;;5.46;78.83
71938;BME280;59810;48.800;9.086;2023-02-02T07:03:54;98359.84;;;5.43;79.05
71938;BME280;59810;48.800;9.086;2023-02-02T07:06:24;98356.31;;;5.42;78.97
71938;BME280;59810;48.800;9.086;2023-02-02T07:08:50;98362.09;;;5.46;79.05
71938;BME280;59810;48.800;9.086;2023-02-02T07:11:16;98361.09;;;5.47;78.69
71938;BME280;59810;48.800;9.086;2023-02-02T07:13:45;98354.06;;;5.46;78.78
71938;BME280;59810;48.800;9.086;2023-02-02T07:16:12;98360.47;;;5.45;78.95
71938;BME280;59810;48.800;9.086;2023-02-02T07:18:40;98369.13;;;5.47;78.74
71938;BME280;59810;48.800;9.086;2023-02-02T07:21:07;98365.41;;;5.48;78.50
71938;BME280;59810;48.800;9.086;2023-02-02T07:23:33;98370.00;;;5.54;78.12
71938;BME280;59810;48.800;9.086;2023-02-02T07:26:04;98369.16;;;5.53;78.01
71938;BME280;59810;48.800;9.086;2023-02-02T07:28:30;98364.19;;;5.50;78.27
71938;BME280;59810;48.800;9.086;2023-02-02T07:30:55;98362.34;;;5.51;78.28
71938;BME280;59810;48.800;9.086;2023-02-02T07:33:24;98371.41;;;5.50;78.47
71938;BME280;59810;48.800;9.086;2023-02-02T07:35:50;98379.22;;;5.51;78.35
71938;BME280;59810;48.800;9.086;2023-02-02T07:38:16;98372.03;;;5.52;78.51
71938;BME280;59810;48.800;9.086;2023-02-02T07:40:42;98386.06;;;5.54;78.46
71938;BME280;59810;48.800;9.086;2023-02-02T07:43:11;98376.19;;;5.54;78.43
71938;BME280;59810;48.800;9.086;2023-02-02T07:45:36;98379.91;;;5.60;77.59
71938;BME280;59810;48.800;9.086;2023-02-02T07:48:02;98376.19;;;5.61;77.67
71938;BME280;59810;48.800;9.086;2023-02-02T07:50:29;98377.44;;;5.65;77.54
71938;BME280;59810;48.800;9.086;2023-02-02T07:52:57;98373.31;;;5.62;77.60
71938;BME280;59810;48.800;9.086;2023-02-02T07:55:23;98370.44;;;5.64;78.25
71938;BME280;59810;48.800;9.086;2023-02-02T07:57:51;98361.59;;;5.63;77.75
71938;BME280;59810;48.800;9.086;2023-02-02T08:00:20;98349.84;;;5.71;76.97
71938;BME280;59810;48.800;9.086;2023-02-02T08:02:47;98352.13;;;5.74;77.20
71938;BME280;59810;48.800;9.086;2023-02-02T08:05:13;98337.50;;;5.77;77.36
71938;BME280;59810;48.800;9.086;2023-02-02T08:07:41;98345.97;;;5.80;77.04
71938;BME280;59810;48.800;9.086;2023-02-02T08:10:09;98348.03;;;5.78;76.93
71938;BME280;59810;48.800;9.086;2023-02-02T08:12:34;98338.94;;;5.79;76.69
71938;BME280;59810;48.800;9.086;2023-02-02T08:15:06;98346.16;;;5.79;76.67
71938;BME280;59810;48.800;9.086;2023-02-02T08:17:32;98356.06;;;5.85;76.53
71938;BME280;59810;48.800;9.086;2023-02-02T08:19:58;98358.38;;;5.88;76.11
71938;BME280;59810;48.800;9.086;2023-02-02T08:22:24;98376.56;;;5.92;76.28
71938;BME280;59810;48.800;9.086;2023-02-02T08:24:49;98377.41;;;6.00;75.62
71938;BME280;59810;48.800;9.086;2023-02-02T08:27:15;98383.38;;;6.08;75.31
71938;BME280;59810;48.800;9.086;2023-02-02T08:29:41;98390.19;;;6.11;75.41
71938;BME280;59810;48.800;9.086;2023-02-02T08:32:07;98395.78;;;6.16;74.95
71938;BME280;59810;48.800;9.086;2023-02-02T08:34:33;98407.16;;;6.18;74.79
71938;BME280;59810;48.800;9.086;2023-02-02T08:37:05;98410.25;;;6.21;74.64
71938;BME280;59810;48.800;9.086;2023-02-02T08:39:31;98418.72;;;6.25;74.25
71938;BME280;59810;48.800;9.086;2023-02-02T08:41:57;98418.09;;;6.23;73.96
71938;BME280;59810;48.800;9.086;2023-02-02T08:44:22;98422.41;;;6.24;74.10
71938;BME280;59810;48.800;9.086;2023-02-02T08:46:49;98426.34;;;6.21;74.29
71938;BME280;59810;48.800;9.086;2023-02-02T08:49:15;98423.44;;;6.23;74.25
71938;BME280;59810;48.800;9.086;2023-02-02T08:51:41;98439.31;;;6.18;74.39
71938;BME280;59810;48.800;9.086;2023-02-02T08:54:07;98449.38;;;6.16;74.92
71938;BME280;59810;48.800;9.086;2023-02-02T08:56:33;98429.59;;;6.17;74.96
71938;BME280;59810;48.800;9.086;2023-02-02T08:58:58;98442.78;;;6.12;75.01
71938;BME280;59810;48.800;9.086;2023-02-02T09:01:27;98452.25;;;6.08;75.29
71938;BME280;59810;48.800;9.086;2023-02-02T09:03:57;98457.81;;;6.06;75.39
71938;BME280;59810;48.800;9.086;2023-02-02T09:06:37;98462.34;;;6.06;75.68
71938;BME280;59810;48.800;9.086;2023-02-02T09:09:06;98460.31;;;6.08;75.92
71938;BME280;59810;48.800;9.086;2023-02-02T09:11:32;98461.00;;;6.30;78.71
71938;BME280;59810;48.800;9.086;2023-02-02T09:13:58;98452.75;;;6.31;75.84
71938;BME280;59810;48.800;9.086;2023-02-02T09:16:29;98453.78;;;6.30;75.82
71938;BME280;59810;48.800;9.086;2023-02-02T09:18:58;98451.50;;;6.20;76.10
71938;BME280;59810;48.800;9.086;2023-02-02T09:21:24;98450.22;;;6.16;76.43
71938;BME280;59810;48.800;9.086;2023-02-02T09:23:51;98464.66;;;6.15;76.33
71938;BME280;59810;48.800;9.086;2023-02-02T09:26:23;98460.31;;;6.14;76.59
71938;BME280;59810;48.800;9.086;2023-02-02T09:28:58;98451.03;;;6.17;76.48
71938;BME280;59810;48.800;9.086;2023-02-02T09:31:28;98453.09;;;6.15;76.79
71938;BME280;59810;48.800;9.086;2023-02-02T09:33:54;98452.06;;;6.16;76.82
71938;BME280;59810;48.800;9.086;2023-02-02T09:36:22;98458.25;;;6.10;77.33
71938;BME280;59810;48.800;9.086;2023-02-02T09:38:50;98466.69;;;6.07;77.33
71938;BME280;59810;48.800;9.086;2023-02-02T09:50:03;98482.31;;;5.97;78.97
71938;BME280;59810;48.800;9.086;2023-02-02T09:52:45;98479.44;;;5.98;78.57
71938;BME280;59810;48.800;9.086;2023-02-02T09:58:25;98481.28;;;5.91;79.51
71938;BME280;59810;48.800;9.086;2023-02-02T10:01:14;98499.56;;;5.87;79.85
71938;BME280;59810;48.800;9.086;2023-02-02T10:06:30;98496.28;;;5.85;79.26
71938;BME280;59810;48.800;9.086;2023-02-02T10:09:24;98497.16;;;5.92;79.23
71938;BME280;59810;48.800;9.086;2023-02-02T10:15:01;98482.94;;;5.99;78.26
71938;BME280;59810;48.800;9.086;2023-02-02T10:20:36;98486.50;;;6.12;77.67
71938;BME280;59810;48.800;9.086;2023-02-02T10:23:26;98479.47;;;6.05;77.76
71938;BME280;59810;48.800;9.086;2023-02-02T10:32:08;98497.19;;;6.06;77.09
71938;BME280;59810;48.800;9.086;2023-02-02T10:40:01;98504.66;;;6.10;77.06
71938;BME280;59810;48.800;9.086;2023-02-02T10:45:43;98507.94;;;6.06;76.95
71938;BME280;59810;48.800;9.086;2023-02-02T10:48:14;98518.88;;;6.11;76.61
71938;BME280;59810;48.800;9.086;2023-02-02T10:50:42;98514.13;;;6.13;76.61
71938;BME280;59810;48.800;9.086;2023-02-02T10:53:13;98510.91;;;6.24;76.29
71938;BME280;59810;48.800;9.086;2023-02-02T10:58:22;98503.25;;;6.21;76.50
71938;BME280;59810;48.800;9.086;2023-02-02T11:00:53;98501.84;;;6.25;76.19
71938;BME280;59810;48.800;9.086;2023-02-02T11:03:28;98494.84;;;6.31;75.83
71938;BME280;59810;48.800;9.086;2023-02-02T11:06:00;98494.44;;;6.34;75.51
71938;BME280;59810;48.800;9.086;2023-02-02T11:08:50;98497.53;;;6.37;75.25
71938;BME280;59810;48.800;9.086;2023-02-02T11:11:34;98494.03;;;6.43;74.84
71938;BME280;59810;48.800;9.086;2023-02-02T11:14:10;98490.72;;;6.41;75.31
71938;BME280;59810;48.800;9.086;2023-02-02T11:16:41;98493.63;;;6.40;75.05
71938;BME280;59810;48.800;9.086;2023-02-02T11:21:51;98495.47;;;6.39;75.34
71938;BME280;59810;48.800;9.086;2023-02-02T11:24:40;98487.63;;;6.44;75.20
71938;BME280;59810;48.800;9.086;2023-02-02T11:27:16;98486.00;;;6.50;75.77
71938;BME280;59810;48.800;9.086;2023-02-02T11:29:46;98481.66;;;6.49;75.93
71938;BME280;59810;48.800;9.086;2023-02-02T11:40:40;98488.31;;;6.60;74.89
71938;BME280;59810;48.800;9.086;2023-02-02T11:46:20;98492.84;;;6.52;74.70
71938;BME280;59810;48.800;9.086;2023-02-02T11:49:05;98491.19;;;6.51;74.48
71938;BME280;59810;48.800;9.086;2023-02-02T11:51:34;98495.31;;;6.54;74.83
71938;BME280;59810;48.800;9.086;2023-02-02T11:57:07;98487.44;;;6.46;75.08
71938;BME280;59810;48.800;9.086;2023-02-02T11:59:39;98483.94;;;6.45;75.56
71938;BME280;59810;48.800;9.086;2023-02-02T12:02:22;98487.84;;;6.49;75.79
71938;BME280;59810;48.800;9.086;2023-02-02T12:04:53;98485.38;;;6.41;77.07
71938;BME280;59810;48.800;9.086;2023-02-02T12:07:31;98478.75;;;6.37;76.85
71938;BME280;59810;48.800;9.086;2023-02-02T12:21:04;98491.16;;;5.90;81.04
71938;BME280;59810;48.800;9.086;2023-02-02T12:23:45;98476.84;;;5.83;81.77
71938;BME280;59810;48.800;9.086;2023-02-02T12:26:30;98487.13;;;5.73;82.26
71938;BME280;59810;48.800;9.086;2023-02-02T12:34:57;98492.81;;;5.57;83.78
71938;BME280;59810;48.800;9.086;2023-02-02T12:37:37;98487.84;;;5.54;82.83
71938;BME280;59810;48.800;9.086;2023-02-02T12:40:38;98488.66;;;5.54;82.52
71938;BME280;59810;48.800;9.086;2023-02-02T13:11:29;98498.59;;;5.32;85.06
71938;BME280;59810;48.800;9.086;2023-02-02T13:14:04;98499.25;;;5.35;84.49
71938;BME280;59810;48.800;9.086;2023-02-02T13:16:36;98500.06;;;5.35;84.38
71938;BME280;59810;48.800;9.086;2023-02-02T13:19:07;98497.81;;;5.39;84.67
71938;BME280;59810;48.800;9.086;2023-02-02T13:21:37;98491.84;;;5.37;84.41
71938;BME280;59810;48.800;9.086;2023-02-02T13:24:11;98484.66;;;5.44;84.53
71938;BME280;59810;48.800;9.086;2023-02-02T13:26:41;98483.66;;;5.45;84.73
71938;BME280;59810;48.800;9.086;2023-02-02T13:29:32;98483.31;;;5.54;83.46
71938;BME280;59810;48.800;9.086;2023-02-02T13:32:12;98482.97;;;5.71;83.13
71938;BME280;59810;48.800;9.086;2023-02-02T13:40:27;98463.72;;;5.88;82.27
71938;BME280;59810;48.800;9.086;2023-02-02T14:01:41;98514.69;;;5.95;80.86
71938;BME280;59810;48.800;9.086;2023-02-02T14:04:19;98504.41;;;5.99;80.33
71938;BME280;59810;48.800;9.086;2023-02-02T14:07:04;98509.34;;;6.02;80.61
71938;BME280;59810;48.800;9.086;2023-02-02T14:09:34;98507.09;;;6.05;79.68
71938;BME280;59810;48.800;9.086;2023-02-02T14:12:04;98507.09;;;6.05;79.50
71938;BME280;59810;48.800;9.086;2023-02-02T14:14:32;98509.81;;;6.12;79.51
71938;BME280;59810;48.800;9.086;2023-02-02T14:17:04;98510.00;;;6.10;79.38
71938;BME280;59810;48.800;9.086;2023-02-02T14:27:01;98514.13;;;6.13;78.14
71938;BME280;59810;48.800;9.086;2023-02-02T14:34:54;98518.28;;;6.15;77.55
71938;BME280;59810;48.800;9.086;2023-02-02T14:45:45;98541.47;;;6.36;77.81
71938;BME280;59810;48.800;9.086;2023-02-02T14:48:16;98534.88;;;6.39;77.03
71938;BME280;59810;48.800;9.086;2023-02-02T14:50:46;98538.38;;;6.39;76.50
71938;BME280;59810;48.800;9.086;2023-02-02T14:53:21;98539.00;;;6.35;76.41
71938;BME280;59810;48.800;9.086;2023-02-02T14:58:29;98550.13;;;6.32;76.39
71938;BME280;59810;48.800;9.086;2023-02-02T15:03:55;98557.34;;;6.31;76.23
71938;BME280;59810;48.800;9.086;2023-02-02T15:31:04;98589.22;;;6.13;76.25
71938;BME280;59810;48.800;9.086;2023-02-02T15:33:35;98591.25;;;6.11;76.49
71938;BME280;59810;48.800;9.086;2023-02-02T15:36:10;98594.53;;;6.06;76.96
71938;BME280;59810;48.800;9.086;2023-02-02T15:38:39;98592.44;;;6.02;77.01
71938;BME280;59810;48.800;9.086;2023-02-02T15:41:33;98599.03;;;5.99;77.21
71938;BME280;59810;48.800;9.086;2023-02-02T15:44:17;98602.78;;;6.05;76.54
71938;BME280;59810;48.800;9.086;2023-02-02T15:46:42;98596.16;;;6.01;76.84
71938;BME280;59810;48.800;9.086;2023-02-02T15:51:49;98596.59;;;6.04;76.34
71938;BME280;59810;48.800;9.086;2023-02-02T15:56:53;98604.19;;;6.01;76.96
71938;BME280;59810;48.800;9.086;2023-02-02T15:59:22;98608.94;;;5.99;76.73
71938;BME280;59810;48.800;9.086;2023-02-02T16:04:35;98632.03;;;6.00;76.86
71938;BME280;59810;48.800;9.086;2023-02-02T16:07:03;98631.63;;;6.03;76.48
71938;BME280;59810;48.800;9.086;2023-02-02T16:09:33;98635.13;;;6.03;76.57
71938;BME280;59810;48.800;9.086;2023-02-02T16:11:59;98641.53;;;6.02;76.63
71938;BME280;59810;48.800;9.086;2023-02-02T16:14:26;98648.13;;;6.00;76.82
71938;BME280;59810;48.800;9.086;2023-02-02T16:16:52;98636.59;;;6.06;76.50
71938;BME280;59810;48.800;9.086;2023-02-02T16:19:23;98647.53;;;6.04;75.88
71938;BME280;59810;48.800;9.086;2023-02-02T16:21:55;98660.53;;;6.07;76.01
71938;BME280;59810;48.800;9.086;2023-02-02T16:24:28;98657.66;;;6.09;75.90
71938;BME280;59810;48.800;9.086;2023-02-02T16:26:59;98674.16;;;6.12;75.84
71938;BME280;59810;48.800;9.086;2023-02-02T16:29:28;98685.09;;;6.11;75.87
71938;BME280;59810;48.800;9.086;2023-02-02T16:31:55;98687.78;;;6.11;75.99
71938;BME280;59810;48.800;9.086;2023-02-02T16:34:41;98693.97;;;6.11;75.82
71938;BME280;59810;48.800;9.086;2023-02-02T16:37:16;98707.16;;;6.13;75.89
71938;BME280;59810;48.800;9.086;2023-02-02T16:39:42;98719.56;;;6.14;75.58
71938;BME280;59810;48.800;9.086;2023-02-02T16:42:28;98721.78;;;6.10;76.09
71938;BME280;59810;48.800;9.086;2023-02-02T16:44:59;98729.22;;;6.08;76.46
71938;BME280;59810;48.800;9.086;2023-02-02T16:52:46;98749.44;;;6.11;76.49
71938;BME280;59810;48.800;9.086;2023-02-02T16:55:17;98733.34;;;6.11;76.80